West Brooklyn, Illinois
Current Conditions -  °F | °C
As of 5:55 AM on Monday 22 Dec 2014 (Local Time) from KRPJ Reporting Station
Haze Haze  
Wind Chill: 22°   Ceiling: 6000
Heat Index: 32°   Visibility: 5mi
Dew Point: 30°   Wind: 14mph
Humidity: 93%   Direction: 130°SE
Pressure: 29.89"   Gusts: NA
Location:  41.69°N, 89.15°W
Report Text: KRPJ 221155Z AUTO 13012KT 5SM BR OVC060 00/M01 A2989 RMK AO2 T00001010 10004 21001
Loading
Personal Weather Stations






























Interactive Weather Map New forecast layout! Learn more

10-Day Weather Forecast

Advertisements
Track Severe Weather on mobile